Time;durP1;ratioP1;P1;durP2;ratioP2;P2;SDS_P1;SDS_P2;PMS_P1;PMS_P2;Temp;Humidity;BMP_temperature;BMP_pressure;BME280_temperature;BME280_humidity;BME280_pressure;Samples;Min_cycle;Max_cycle;Signal;HPM_P1;HPM_P2
2021/12/08 03:45:21;;;;;;;157.02;54.22;;;1.00;99.90;;;;;;5641612;24;20037;31
2021/12/08 03:47:58;;;;;;;145.85;54.08;;;0.90;99.90;;;;;;4688162;30;20400;-81
2021/12/08 03:50:24;;;;;;;;;;;0.80;99.90;;;;;;4701270;30;20033;-81
2021/12/08 03:52:49;;;;;;;139.60;51.33;;;0.80;99.90;;;;;;4678693;30;19939;-82
2021/12/08 03:55:16;;;;;;;142.32;52.90;;;0.80;99.90;;;;;;4664298;30;20492;-82
2021/12/08 03:57:43;;;;;;;140.25;53.08;;;0.80;99.90;;;;;;4666519;30;20347;-83
2021/12/08 04:00:13;;;;;;;136.05;52.85;;;0.80;99.90;;;;;;4683330;30;20041;-83
2021/12/08 04:02:40;;;;;;;149.90;54.53;;;0.80;99.90;;;;;;4727305;30;20033;-80
2021/12/08 04:05:08;;;;;;;146.35;53.83;;;0.80;99.90;;;;;;4687928;30;20328;-82
2021/12/08 04:07:42;;;;;;;142.05;53.33;;;0.70;99.90;;;;;;4667294;30;20037;-81
2021/12/08 04:10:15;;;;;;;155.55;56.25;;;0.80;99.90;;;;;;4695294;30;20033;-80
2021/12/08 04:12:41;;;;;;;135.30;52.80;;;0.80;99.90;;;;;;4673645;30;20038;-83
2021/12/08 04:15:07;;;;;;;153.07;54.85;;;0.70;99.90;;;;;;4686565;30;20048;-83
2021/12/08 04:17:41;;;;;;;161.98;56.63;;;0.70;99.90;;;;;;4689561;30;20083;-82
2021/12/08 04:20:20;;;;;;;157.93;55.70;;;0.70;99.90;;;;;;4720979;30;20088;-83
2021/12/08 04:22:49;;;;;;;156.77;56.97;;;0.70;99.90;;;;;;4712579;30;20041;-81
2021/12/08 04:25:23;;;;;;;157.88;57.63;;;0.60;99.90;;;;;;4699624;30;20056;-81
2021/12/08 04:27:51;;;;;;;159.23;55.95;;;0.60;99.90;;;;;;4681101;30;20170;-82
2021/12/08 04:30:24;;;;;;;156.82;56.50;;;0.50;99.90;;;;;;4695372;30;20286;-82
2021/12/08 04:32:50;;;;;;;142.63;55.28;;;0.50;99.90;;;;;;4695124;30;20383;-81
2021/12/08 04:35:19;;;;;;;151.82;56.40;;;0.60;99.90;;;;;;4712238;30;20052;-83
2021/12/08 04:37:49;;;;;;;168.13;57.90;;;0.70;99.90;;;;;;4689954;30;20136;-80
2021/12/08 04:40:27;;;;;;;163.43;59.88;;;0.80;99.90;;;;;;4703386;30;20083;-81
2021/12/08 04:43:12;;;;;;;159.35;55.28;;;0.80;99.90;;;;;;4682255;30;20036;-81
2021/12/08 04:46:07;;;;;;;163.38;54.83;;;0.80;99.90;;;;;;4694858;30;20044;-81
2021/12/08 04:51:29;;;;;;;;;;;0.70;99.90;;;;;;4713144;30;20037;-81
2021/12/08 05:02:23;;;;;;;141.68;52.97;;;0.60;99.90;;;;;;4684053;30;20214;-81
2021/12/08 05:09:57;;;;;;;158.43;57.60;;;0.50;99.90;;;;;;4708851;30;20064;-81
2021/12/08 05:12:27;;;;;;;173.68;57.78;;;0.40;99.90;;;;;;4665833;30;20044;-81
2021/12/08 05:15:02;;;;;;;158.73;54.95;;;0.40;99.90;;;;;;4694435;30;20044;-81
2021/12/08 05:17:45;;;;;;;179.93;60.50;;;0.30;99.90;;;;;;4690514;30;20033;-82
2021/12/08 05:20:26;;;;;;;184.23;60.38;;;0.30;99.90;;;;;;4694184;30;20072;-81
2021/12/08 05:23:04;;;;;;;149.07;54.15;;;0.20;99.90;;;;;;4674286;30;20109;-81
2021/12/08 05:25:34;;;;;;;152.65;54.67;;;0.20;99.90;;;;;;4687801;30;20065;-81
2021/12/08 05:28:03;;;;;;;172.48;57.78;;;0.20;99.90;;;;;;4694252;30;20026;-81
2021/12/08 05:30:50;;;;;;;168.23;58.05;;;0.20;99.90;;;;;;4695373;30;20044;-81
2021/12/08 05:33:18;;;;;;;178.00;59.70;;;0.10;99.90;;;;;;4696442;30;20025;-81
2021/12/08 05:35:45;;;;;;;173.02;60.55;;;0.00;99.90;;;;;;4695245;30;20109;-80
2021/12/08 05:38:11;;;;;;;170.27;59.97;;;0.00;99.90;;;;;;4666127;30;20026;-80
2021/12/08 05:40:50;;;;;;;162.27;57.13;;;-0.10;99.90;;;;;;4665754;30;20060;-82
2021/12/08 05:43:17;;;;;;;175.80;57.88;;;0.00;99.90;;;;;;4682804;30;20101;-81
2021/12/08 05:45:45;;;;;;;158.35;55.38;;;-0.10;99.90;;;;;;4692828;30;20112;-80
2021/12/08 05:48:12;;;;;;;179.88;61.42;;;-0.10;99.90;;;;;;4688262;30;20129;-80
2021/12/08 05:50:56;;;;;;;183.52;62.25;;;-0.10;99.90;;;;;;4680024;30;20234;-80
2021/12/08 05:53:24;;;;;;;198.15;62.60;;;-0.20;99.90;;;;;;4693890;30;20044;-80
2021/12/08 05:55:50;;;;;;;167.90;59.75;;;-0.20;99.90;;;;;;4693878;30;20033;-81
2021/12/08 05:58:18;;;;;;;173.48;56.78;;;-0.20;99.90;;;;;;4693905;30;20037;-81
2021/12/08 06:00:51;;;;;;;174.27;57.97;;;-0.30;99.90;;;;;;4665737;30;20046;-80
2021/12/08 06:03:18;;;;;;;166.55;57.40;;;-0.30;99.90;;;;;;4681643;30;20037;-82
2021/12/08 06:05:46;;;;;;;;;;;-0.30;99.90;;;;;;4713385;30;20199;-82
2021/12/08 06:08:13;;;;;;;158.80;51.78;;;-0.30;99.90;;;;;;4712886;30;19915;-80
2021/12/08 06:10:39;;;;;;;;;;;-0.40;99.90;;;;;;4683413;30;20033;-80
2021/12/08 06:13:09;;;;;;;143.60;50.45;;;-0.40;99.90;;;;;;4682968;30;19941;-80
2021/12/08 06:15:36;;;;;;;150.00;52.28;;;-0.40;99.90;;;;;;4694279;30;20050;-81
2021/12/08 06:18:03;;;;;;;142.98;52.38;;;-0.40;99.90;;;;;;4635017;30;20034;-81
2021/12/08 06:20:28;;;;;;;133.95;51.75;;;-0.30;99.90;;;;;;4687928;30;20037;-81
2021/12/08 06:22:57;;;;;;;130.35;50.40;;;-0.30;99.90;;;;;;4668480;30;20359;-81
2021/12/08 06:25:24;;;;;;;117.03;45.85;;;-0.30;99.90;;;;;;4696860;30;20075;-81
2021/12/08 06:27:49;;;;;;;;;;;-0.20;99.90;;;;;;4654915;30;20065;-80
2021/12/08 06:30:21;;;;;;;102.13;42.90;;;-0.20;99.90;;;;;;4682732;30;19934;-81
2021/12/08 06:32:47;;;;;;;108.63;46.28;;;-0.10;99.90;;;;;;4696898;30;20274;-81
2021/12/08 06:35:21;;;;;;;96.78;41.20;;;0.00;99.90;;;;;;4696895;30;20125;-81
2021/12/08 06:37:48;;;;;;;97.25;41.05;;;0.00;99.90;;;;;;4696804;30;20033;-81
2021/12/08 06:40:31;;;;;;;90.82;38.38;;;0.10;99.90;;;;;;4696585;30;20037;-81
2021/12/08 06:42:59;;;;;;;88.35;36.40;;;0.10;99.90;;;;;;4682237;30;20056;-81
2021/12/08 06:45:30;;;;;;;85.30;36.78;;;0.20;99.90;;;;;;4689707;30;20357;-81
2021/12/08 06:47:57;;;;;;;82.18;36.28;;;0.30;99.90;;;;;;4673535;30;20116;-81
2021/12/08 06:50:31;;;;;;;83.13;37.67;;;0.40;99.90;;;;;;4667267;30;20340;-81
2021/12/08 06:52:56;;;;;;;88.57;37.05;;;0.50;99.90;;;;;;4677462;30;20033;-81
2021/12/08 06:55:31;;;;;;;86.03;35.88;;;0.50;99.90;;;;;;4698066;30;20037;-81
2021/12/08 06:58:02;;;;;;;83.57;36.95;;;0.50;99.90;;;;;;4702160;30;20033;-80
2021/12/08 07:00:50;;;;;;;87.55;37.47;;;0.60;99.90;;;;;;4681849;30;20105;-80
2021/12/08 07:06:12;;;;;;;90.50;39.53;;;0.60;99.90;;;;;;4681835;30;20107;-82
2021/12/08 07:08:48;;;;;;;89.05;39.58;;;0.60;99.90;;;;;;4655061;30;20330;-82
2021/12/08 07:11:18;;;;;;;96.68;39.20;;;0.60;99.90;;;;;;4700310;30;20050;-80
2021/12/08 07:13:44;;;;;;;93.57;40.70;;;0.60;99.90;;;;;;4686044;30;20355;-80
2021/12/08 07:16:16;;;;;;;87.75;39.05;;;0.60;99.90;;;;;;4665928;30;20045;-81
2021/12/08 07:18:57;;;;;;;96.75;42.78;;;0.50;99.90;;;;;;4686100;30;20230;-80
2021/12/08 07:21:33;;;;;;;100.25;42.60;;;0.60;99.90;;;;;;4691256;30;20041;-80
2021/12/08 07:24:07;;;;;;;94.43;40.50;;;0.60;99.90;;;;;;4685133;30;20036;-80
2021/12/08 07:26:38;;;;;;;97.97;40.15;;;0.60;99.90;;;;;;4697501;30;20037;-81
2021/12/08 07:29:06;;;;;;;97.55;42.63;;;0.60;99.90;;;;;;4677993;30;20060;-80
2021/12/08 07:31:36;;;;;;;95.20;40.22;;;0.60;99.90;;;;;;4693663;30;20293;-81
2021/12/08 07:34:07;;;;;;;93.57;40.88;;;0.70;99.90;;;;;;4679863;30;20034;-80
2021/12/08 07:36:36;;;;;;;95.57;40.47;;;0.70;99.90;;;;;;4704285;30;20061;-81
2021/12/08 07:39:08;;;;;;;90.93;39.15;;;0.80;99.90;;;;;;4679065;30;20033;-81
2021/12/08 07:41:40;;;;;;;85.43;38.45;;;0.80;99.90;;;;;;4681188;30;20029;-82
2021/12/08 07:44:10;;;;;;;92.72;38.72;;;0.90;99.90;;;;;;4695027;30;20340;-81
2021/12/08 07:46:40;;;;;;;85.53;37.95;;;1.00;99.90;;;;;;4667591;30;20053;-82
2021/12/08 07:49:21;;;;;;;94.38;40.35;;;1.00;99.90;;;;;;4668216;30;20048;-81
2021/12/08 07:52:05;;;;;;;86.65;37.60;;;1.10;99.90;;;;;;4665073;30;20109;-80
2021/12/08 07:54:32;;;;;;;85.38;39.15;;;1.10;99.90;;;;;;4677901;30;20076;-81
2021/12/08 07:57:00;;;;;;;86.63;40.30;;;1.10;99.90;;;;;;4680399;30;20121;-81
2021/12/08 07:59:28;;;;;;;87.72;40.00;;;1.20;99.90;;;;;;4664820;30;20034;-81
2021/12/08 08:01:57;;;;;;;77.38;37.85;;;1.30;99.90;;;;;;4694273;30;20125;-81
2021/12/08 08:04:26;;;;;;;89.57;40.30;;;1.30;99.90;;;;;;4675689;30;20030;-81
2021/12/08 08:06:56;;;;;;;88.22;39.88;;;1.40;99.90;;;;;;4652541;30;20045;-81
2021/12/08 08:09:27;;;;;;;78.82;39.83;;;1.40;99.90;;;;;;4665825;30;20058;-82
2021/12/08 08:11:58;;;;;;;83.05;40.05;;;1.50;99.90;;;;;;4679828;30;20333;-81
2021/12/08 08:14:29;;;;;;;88.57;37.08;;;1.50;99.90;;;;;;4673700;30;20039;-81
2021/12/08 08:16:57;;;;;;;80.68;36.88;;;1.50;99.90;;;;;;4671340;30;20046;-81
2021/12/08 08:19:28;;;;;;;88.22;38.10;;;1.60;99.90;;;;;;4648748;30;20029;-81
2021/12/08 08:21:59;;;;;;;79.15;37.20;;;1.60;99.90;;;;;;4652079;30;20108;-82
2021/12/08 08:24:25;;;;;;;85.05;37.95;;;1.60;99.90;;;;;;4668679;30;20369;-81
2021/12/08 08:26:54;;;;;;;77.50;38.53;;;1.70;99.90;;;;;;4671740;30;20121;-81
2021/12/08 08:29:20;;;;;;;84.40;37.30;;;1.80;99.90;;;;;;4664254;30;20276;-81
2021/12/08 08:31:56;;;;;;;79.70;37.17;;;1.80;99.90;;;;;;4636779;30;20037;-81
2021/12/08 08:34:22;;;;;;;75.70;37.90;;;1.90;99.90;;;;;;4685845;30;20099;-81
2021/12/08 08:36:49;;;;;;;78.25;36.25;;;2.00;99.90;;;;;;4664163;30;20289;-81
2021/12/08 08:39:33;;;;;;;72.70;35.38;;;1.90;99.70;;;;;;4676615;30;20109;-81
2021/12/08 08:42:09;;;;;;;76.65;35.92;;;2.10;99.80;;;;;;4676469;30;20333;-81
2021/12/08 08:44:35;;;;;;;82.97;37.07;;;2.10;99.30;;;;;;4683728;30;20276;-81
2021/12/08 08:47:07;;;;;;;80.40;36.38;;;2.10;99.30;;;;;;4694869;30;20053;-81
2021/12/08 08:49:34;;;;;;;72.78;35.70;;;2.10;99.40;;;;;;4677001;30;20022;-81
2021/12/08 08:52:19;;;;;;;76.72;38.30;;;2.20;99.10;;;;;;4678481;30;20066;-82
2021/12/08 08:54:47;;;;;;;71.22;34.50;;;2.40;99.00;;;;;;4677783;30;20380;-81
2021/12/08 08:57:24;;;;;;;65.00;30.33;;;2.40;98.80;;;;;;4701963;30;20049;-81
2021/12/08 09:00:03;;;;;;;73.63;37.03;;;2.50;98.60;;;;;;4679347;30;20262;-82
2021/12/08 09:02:37;;;;;;;64.97;32.50;;;2.50;98.40;;;;;;4682125;30;20037;-81
2021/12/08 09:05:14;;;;;;;60.63;30.05;;;2.60;98.10;;;;;;4664921;30;20132;-81
2021/12/08 09:07:45;;;;;;;63.30;31.52;;;2.60;97.70;;;;;;4683125;30;20033;-81
2021/12/08 09:10:44;;;;;;;69.38;32.70;;;2.70;97.90;;;;;;4693747;30;20040;-82
2021/12/08 09:13:35;;;;;;;62.35;30.95;;;2.80;97.70;;;;;;4677577;30;20213;-81
2021/12/08 09:16:08;;;;;;;66.97;30.45;;;2.80;97.30;;;;;;4678075;30;20330;-80
2021/12/08 09:18:51;;;;;;;62.03;30.77;;;2.90;97.20;;;;;;4690859;30;20109;-80
2021/12/08 09:21:25;;;;;;;52.92;27.83;;;3.00;96.90;;;;;;4691484;30;20042;-80
2021/12/08 09:23:56;;;;;;;58.80;29.65;;;3.00;96.60;;;;;;4672501;30;20052;-80
2021/12/08 09:26:24;;;;;;;56.17;29.15;;;3.10;96.00;;;;;;4692461;30;20052;-80
2021/12/08 09:29:11;;;;;;;57.10;28.55;;;3.10;96.00;;;;;;4681937;30;20045;-80
2021/12/08 09:31:55;;;;;;;52.70;25.58;;;3.20;95.70;;;;;;4671372;30;20269;-81
2021/12/08 09:34:29;;;;;;;45.40;24.33;;;3.20;95.10;;;;;;4688398;30;20428;-81
2021/12/08 09:36:59;;;;;;;52.78;23.88;;;3.30;94.90;;;;;;4692280;30;20041;-81
2021/12/08 09:39:30;;;;;;;54.78;24.45;;;3.30;94.60;;;;;;4693048;30;20041;-81
2021/12/08 09:42:08;;;;;;;42.35;22.08;;;3.40;94.40;;;;;;4678612;30;20045;-81
2021/12/08 09:44:42;;;;;;;48.33;25.77;;;3.40;93.40;;;;;;4692779;30;20029;-81
2021/12/08 09:47:09;;;;;;;41.83;22.48;;;3.50;94.00;;;;;;4675306;30;20058;-81
2021/12/08 09:49:35;;;;;;;46.37;21.87;;;3.50;93.60;;;;;;4668738;30;20097;-81
2021/12/08 09:52:05;;;;;;;42.37;22.50;;;3.60;93.80;;;;;;4665892;30;20501;-81
2021/12/08 09:54:32;;;;;;;39.25;21.27;;;3.70;93.40;;;;;;4674743;30;20204;-81
2021/12/08 09:56:59;;;;;;;33.33;19.77;;;3.80;93.30;;;;;;4677316;30;20121;-81
2021/12/08 09:59:25;;;;;;;39.15;21.52;;;3.80;93.00;;;;;;4667341;30;20038;-81
2021/12/08 10:01:55;;;;;;;38.75;20.40;;;3.90;92.80;;;;;;4672872;30;20053;-81
2021/12/08 10:04:21;;;;;;;41.88;21.40;;;3.90;92.90;;;;;;4655613;30;20058;-81
2021/12/08 10:06:52;;;;;;;43.47;21.55;;;4.00;92.70;;;;;;4660208;30;20093;-81
2021/12/08 10:09:20;;;;;;;43.33;21.88;;;4.00;92.10;;;;;;4673194;30;20330;-81
2021/12/08 10:11:46;;;;;;;39.88;21.52;;;4.00;92.40;;;;;;4660070;30;20037;-81
2021/12/08 10:14:13;;;;;;;43.28;23.45;;;4.00;92.10;;;;;;4694470;30;20042;-81
2021/12/08 10:16:39;;;;;;;43.80;23.80;;;4.10;91.90;;;;;;4670514;30;20057;-81
2021/12/08 10:19:05;;;;;;;48.88;24.60;;;4.10;91.80;;;;;;4690019;30;20364;-81
2021/12/08 10:21:37;;;;;;;45.55;24.15;;;4.20;91.70;;;;;;4690095;30;20038;-81
2021/12/08 10:24:14;;;;;;;48.15;24.88;;;4.20;91.70;;;;;;4675654;30;20037;-81
2021/12/08 10:26:40;;;;;;;;;;;4.20;91.50;;;;;;4681192;30;20285;-81
2021/12/08 10:29:06;;;;;;;52.20;25.60;;;4.10;91.50;;;;;;4690187;30;19912;-80
2021/12/08 10:31:39;;;;;;;58.78;27.75;;;4.00;91.60;;;;;;4678562;30;20046;-80
2021/12/08 10:37:10;;;;;;;59.78;29.48;;;4.00;92.20;;;;;;4679702;30;20113;-80
2021/12/08 10:39:38;;;;;;;47.60;25.63;;;4.10;92.30;;;;;;4641310;30;20082;-81
2021/12/08 10:42:18;;;;;;;55.13;26.75;;;4.10;92.20;;;;;;4628774;30;20058;-81
2021/12/08 10:47:36;;;;;;;56.72;27.80;;;4.30;92.10;;;;;;4625971;30;20064;-81
2021/12/08 10:55:56;;;;;;;51.90;27.58;;;4.40;92.10;;;;;;4638445;30;20370;-81
2021/12/08 10:58:27;;;;;;;56.63;28.98;;;4.40;91.90;;;;;;4652518;30;20437;-81
2021/12/08 11:00:56;;;;;;;65.25;31.55;;;4.50;92.00;;;;;;4658894;30;20377;-81
2021/12/08 11:03:23;;;;;;;64.75;32.78;;;4.40;92.10;;;;;;4649258;30;20051;-81
2021/12/08 11:05:55;;;;;;;65.47;32.20;;;4.40;92.50;;;;;;4642086;31;20043;-81
2021/12/08 11:08:28;;;;;;;50.72;26.63;;;4.50;92.60;;;;;;4631727;30;20039;-81
2021/12/08 11:11:07;;;;;;;55.85;29.52;;;4.40;92.40;;;;;;4658817;30;20085;-81
2021/12/08 11:13:34;;;;;;;54.92;27.35;;;4.50;92.80;;;;;;4644711;30;20098;-81
2021/12/08 11:16:08;;;;;;;58.63;27.58;;;4.60;92.70;;;;;;4663441;30;20064;-81
2021/12/08 11:18:39;;;;;;;56.38;28.38;;;4.60;92.70;;;;;;4684272;30;20102;-81
2021/12/08 11:21:16;;;;;;;59.30;28.00;;;4.50;92.90;;;;;;4677820;30;20054;-82
2021/12/08 11:23:47;;;;;;;57.95;29.27;;;4.60;92.80;;;;;;4708539;30;20026;-82
2021/12/08 11:26:14;;;;;;;50.92;26.05;;;4.60;92.80;;;;;;4694846;30;20037;-81
2021/12/08 11:28:41;;;;;;;57.33;28.23;;;4.60;93.00;;;;;;4706993;30;20029;-80
2021/12/08 11:31:12;;;;;;;53.95;30.17;;;4.70;93.20;;;;;;4692331;30;20046;-80
2021/12/08 11:33:42;;;;;;;58.88;27.80;;;4.60;93.20;;;;;;4678044;30;20038;-80
2021/12/08 11:36:20;;;;;;;59.35;29.77;;;4.70;93.10;;;;;;4677933;30;20042;-81
2021/12/08 11:38:49;;;;;;;54.65;27.83;;;4.60;93.40;;;;;;4706893;30;20092;-82
2021/12/08 11:41:22;;;;;;;58.33;33.65;;;4.70;93.60;;;;;;4681884;30;20100;-82
2021/12/08 11:43:56;;;;;;;61.95;30.23;;;4.70;93.30;;;;;;4694901;30;20038;-81
2021/12/08 11:46:24;;;;;;;59.63;28.60;;;4.70;93.50;;;;;;4671158;30;20069;-81
2021/12/08 11:49:04;;;;;;;61.63;30.85;;;4.70;93.70;;;;;;4677776;30;20078;-81
2021/12/08 11:51:33;;;;;;;59.88;30.88;;;4.60;94.00;;;;;;4682136;30;20042;-82
2021/12/08 11:53:59;;;;;;;70.82;35.10;;;4.60;93.80;;;;;;4677578;30;20038;-81
2021/12/08 11:56:42;;;;;;;70.65;36.20;;;4.60;94.20;;;;;;4691619;30;20058;-82
2021/12/08 11:59:10;;;;;;;63.47;32.10;;;4.60;94.30;;;;;;4691814;30;20077;-81
2021/12/08 12:01:37;;;;;;;70.40;32.97;;;4.50;94.40;;;;;;4691237;30;20038;-81
2021/12/08 12:04:07;;;;;;;86.35;39.92;;;4.40;94.50;;;;;;4677421;30;20117;-81
2021/12/08 12:06:34;;;;;;;67.32;32.78;;;4.40;94.60;;;;;;4677889;30;20077;-81
2021/12/08 12:09:01;;;;;;;89.15;41.45;;;4.40;94.80;;;;;;4691652;30;20042;-81
2021/12/08 12:11:28;;;;;;;77.13;36.00;;;4.40;95.00;;;;;;4677203;30;20131;-81
2021/12/08 12:13:55;;;;;;;;;;;4.40;95.00;;;;;;4691932;30;20102;-81
2021/12/08 12:16:22;;;;;;;60.05;29.60;;;4.50;94.90;;;;;;4668515;30;19934;-81
2021/12/08 12:18:50;;;;;;;64.07;30.10;;;4.50;95.00;;;;;;4677140;30;20274;-81
2021/12/08 12:21:45;;;;;;;57.70;30.13;;;4.60;94.90;;;;;;4677150;30;20121;-81
2021/12/08 12:24:29;;;;;;;55.65;30.27;;;4.70;94.80;;;;;;4656439;30;20053;-81
2021/12/08 12:27:16;;;;;;;36.13;18.48;;;4.90;94.40;;;;;;4645866;30;20386;-81
2021/12/08 12:29:44;;;;;;;21.67;12.65;;;5.00;93.30;;;;;;4642528;30;20049;-81
2021/12/08 12:32:25;;;;;;;19.20;11.40;;;5.10;91.90;;;;;;4642332;30;20050;-80
2021/12/08 12:34:53;;;;;;;17.00;10.68;;;5.30;91.10;;;;;;4641991;30;20057;-81
2021/12/08 12:37:34;;;;;;;18.08;10.23;;;5.40;90.80;;;;;;4656368;30;20111;-80
2021/12/08 12:40:04;;;;;;;21.88;10.70;;;5.50;90.30;;;;;;4625736;31;20338;-80
2021/12/08 12:42:56;;;;;;;17.58;9.23;;;5.50;89.00;;;;;;4624208;30;20051;-81
2021/12/08 12:45:24;;;;;;;19.17;10.10;;;5.60;87.40;;;;;;4628657;30;20096;-81
2021/12/08 12:48:20;;;;;;;21.92;10.02;;;5.70;87.40;;;;;;4653062;30;20429;-81
2021/12/08 12:51:04;;;;;;;17.15;9.30;;;5.60;85.50;;;;;;4640090;30;20063;-81
2021/12/08 12:53:38;;;;;;;15.90;9.43;;;5.70;86.00;;;;;;4641850;30;20039;-81
2021/12/08 12:56:10;;;;;;;17.23;8.73;;;5.70;86.30;;;;;;4642206;30;20317;-81
2021/12/08 12:58:56;;;;;;;17.90;9.85;;;5.70;85.30;;;;;;4643000;30;20051;-82
2021/12/08 13:01:29;;;;;;;16.17;8.70;;;5.80;85.40;;;;;;4684420;30;20080;-81
2021/12/08 13:03:57;;;;;;;18.20;8.15;;;5.70;85.10;;;;;;4697227;30;20311;-82
2021/12/08 13:06:42;;;;;;;18.75;9.00;;;5.80;84.90;;;;;;4671261;30;20045;-82
2021/12/08 13:09:29;;;;;;;18.63;10.65;;;5.80;84.40;;;;;;4675143;30;20069;-82
2021/12/08 13:12:13;;;;;;;17.63;8.90;;;5.80;84.50;;;;;;4693631;30;20361;-82
2021/12/08 13:14:40;;;;;;;14.05;7.95;;;5.80;83.60;;;;;;4707431;30;20330;-81
2021/12/08 13:17:19;;;;;;;15.52;9.65;;;5.70;83.80;;;;;;4702855;30;20353;-82
2021/12/08 13:19:51;;;;;;;20.30;9.77;;;5.70;84.30;;;;;;4707783;30;20104;-82
2021/12/08 13:22:56;;;;;;;16.05;8.32;;;5.80;84.80;;;;;;4707781;30;20048;-82
2021/12/08 13:25:28;;;;;;;16.58;8.98;;;5.80;83.90;;;;;;4693656;30;20080;-82
2021/12/08 13:28:06;;;;;;;21.45;13.15;;;5.80;83.90;;;;;;4707749;30;20386;-82
2021/12/08 13:30:32;;;;;;;37.13;21.40;;;5.80;84.80;;;;;;4693404;30;20065;-82
2021/12/08 13:33:07;;;;;;;30.40;16.52;;;5.90;86.20;;;;;;4679009;30;20042;-82
2021/12/08 13:35:37;;;;;;;22.92;14.25;;;5.90;87.10;;;;;;4694529;30;20049;-82
2021/12/08 13:38:04;;;;;;;33.05;15.55;;;5.90;87.50;;;;;;4687972;30;20363;-82
2021/12/08 13:40:47;;;;;;;33.30;16.73;;;5.90;87.90;;;;;;4679020;30;20371;-82
2021/12/08 13:43:36;;;;;;;28.17;14.02;;;5.90;88.10;;;;;;4674918;30;20053;-82
2021/12/08 13:46:04;;;;;;;27.10;14.25;;;5.90;88.80;;;;;;4673530;30;20133;-82
2021/12/08 13:48:30;;;;;;;32.33;17.30;;;5.90;88.90;;;;;;4661893;30;20089;-82
2021/12/08 13:51:18;;;;;;;24.85;14.75;;;5.90;89.00;;;;;;4676723;30;20034;-82
2021/12/08 13:53:44;;;;;;;20.63;12.73;;;5.80;89.30;;;;;;4688895;30;20030;-82
2021/12/08 13:56:10;;;;;;;21.77;12.45;;;5.80;89.80;;;;;;4675068;30;20364;-82
2021/12/08 13:58:39;;;;;;;23.53;11.97;;;5.80;89.50;;;;;;4674141;30;20113;-82
2021/12/08 14:01:13;;;;;;;25.67;13.70;;;5.70;89.40;;;;;;4659671;30;20330;-82
2021/12/08 14:03:42;;;;;;;21.20;12.68;;;5.70;89.80;;;;;;4647680;30;20121;-82
2021/12/08 14:06:10;;;;;;;22.27;12.30;;;5.70;89.70;;;;;;4658645;30;20026;-82
2021/12/08 14:08:45;;;;;;;20.85;11.73;;;5.70;89.30;;;;;;4674850;30;20045;-82
2021/12/08 14:11:23;;;;;;;22.25;12.35;;;5.70;89.60;;;;;;4672551;30;20325;-82
2021/12/08 14:13:51;;;;;;;21.17;12.77;;;5.70;89.30;;;;;;4673647;30;20077;-82
2021/12/08 14:16:17;;;;;;;21.38;12.73;;;5.70;89.60;;;;;;4675593;30;20105;-82
2021/12/08 14:18:45;;;;;;;27.33;12.73;;;5.60;89.40;;;;;;4663749;30;20045;-82
2021/12/08 14:21:12;;;;;;;24.42;14.35;;;5.60;89.20;;;;;;4693929;30;20191;-82
2021/12/08 14:23:40;;;;;;;;;;;5.60;89.40;;;;;;4690462;30;20085;-82
2021/12/08 14:26:21;;;;;;;24.70;13.77;;;5.70;88.30;;;;;;4667824;30;20130;-82
2021/12/08 14:28:48;;;;;;;21.23;12.30;;;5.70;88.60;;;;;;4678423;30;20038;-82
2021/12/08 14:31:17;;;;;;;;;;;5.60;88.70;;;;;;4681767;30;20065;-82
2021/12/08 14:34:09;;;;;;;21.65;12.07;;;5.60;88.30;;;;;;4693040;30;19920;-82
2021/12/08 14:37:15;;;;;;;23.45;11.38;;;5.60;88.70;;;;;;4607868;31;20055;-82
2021/12/08 14:39:41;;;;;;;19.83;11.75;;;5.60;88.40;;;;;;4607775;31;20044;-82
2021/12/08 14:42:15;;;;;;;27.98;14.63;;;5.60;88.70;;;;;;4609727;31;20247;-82
2021/12/08 14:44:53;;;;;;;24.52;12.48;;;5.60;88.70;;;;;;4593331;31;20075;-82
2021/12/08 14:47:24;;;;;;;22.02;11.95;;;5.50;88.80;;;;;;4620597;31;20090;-82
2021/12/08 14:49:54;;;;;;;21.15;12.50;;;5.50;89.20;;;;;;4600755;31;20391;-81
2021/12/08 14:52:21;;;;;;;21.98;12.73;;;5.50;89.30;;;;;;4624062;31;20123;-82
2021/12/08 14:54:51;;;;;;;28.95;14.43;;;5.50;89.20;;;;;;4604967;31;20167;-81
2021/12/08 14:57:19;;;;;;;25.55;14.30;;;5.40;89.50;;;;;;4636206;31;20258;-81
2021/12/08 15:00:03;;;;;;;27.02;16.23;;;5.40;89.30;;;;;;4637338;31;20055;-82
2021/12/08 15:02:38;;;;;;;27.73;14.20;;;5.40;89.40;;;;;;4624086;31;20052;-81
2021/12/08 15:05:09;;;;;;;22.30;12.93;;;5.30;89.60;;;;;;4610143;31;20048;-82
2021/12/08 15:07:35;;;;;;;22.83;13.30;;;5.40;89.80;;;;;;4632758;31;20288;-80
2021/12/08 15:10:07;;;;;;;26.85;14.15;;;5.30;90.00;;;;;;4619386;31;20135;-81
2021/12/08 15:12:35;;;;;;;25.20;13.70;;;5.30;89.60;;;;;;4632009;30;20054;-82
2021/12/08 15:15:11;;;;;;;31.05;15.15;;;5.30;90.20;;;;;;4705494;30;20058;-80
2021/12/08 15:17:37;;;;;;;22.80;13.63;;;5.40;90.10;;;;;;4685541;30;20353;-80
2021/12/08 15:20:04;;;;;;;23.95;13.90;;;5.40;90.20;;;;;;4671708;30;20294;-83
2021/12/08 15:22:39;;;;;;;25.42;12.65;;;5.40;90.40;;;;;;4672162;30;20043;-82
2021/12/08 15:25:16;;;;;;;28.02;15.25;;;5.30;90.20;;;;;;4675539;30;20053;-81
2021/12/08 15:27:43;;;;;;;;;;;5.40;90.40;;;;;;4661927;30;20090;-82
2021/12/08 15:30:10;;;;;;;32.38;18.30;;;5.40;90.20;;;;;;4663462;30;19912;-82
2021/12/08 15:32:37;;;;;;;31.85;17.73;;;5.40;90.30;;;;;;4664542;30;20047;-81
2021/12/08 15:35:05;;;;;;;28.63;15.93;;;5.40;90.30;;;;;;4698771;30;20338;-82
2021/12/08 15:37:33;;;;;;;35.28;17.55;;;5.40;90.30;;;;;;4663850;30;20161;-82
2021/12/08 15:39:59;;;;;;;27.83;16.40;;;5.40;90.30;;;;;;4660781;30;20062;-82
2021/12/08 15:42:31;;;;;;;26.00;15.27;;;5.40;90.40;;;;;;4665417;30;20053;-82
2021/12/08 15:45:06;;;;;;;23.20;14.35;;;5.40;90.40;;;;;;4676537;30;20043;-82
2021/12/08 15:47:36;;;;;;;23.42;13.98;;;5.30;90.60;;;;;;4680193;30;20072;-83
2021/12/08 15:50:21;;;;;;;29.17;14.73;;;5.40;90.60;;;;;;4679005;30;20338;-82
2021/12/08 15:52:53;;;;;;;26.30;14.85;;;5.30;90.70;;;;;;4676123;30;20071;-83
2021/12/08 15:55:24;;;;;;;25.45;12.98;;;5.30;90.70;;;;;;4664740;30;20223;-82
2021/12/08 15:58:32;;;;;;;21.92;12.75;;;5.30;90.50;;;;;;4667945;30;20048;-81
2021/12/08 16:00:59;;;;;;;24.23;13.80;;;5.30;90.40;;;;;;4628876;30;20067;-83
2021/12/08 16:03:39;;;;;;;23.27;12.77;;;5.30;90.60;;;;;;4604138;30;20051;-83
2021/12/08 16:06:27;;;;;;;27.05;14.80;;;5.30;90.60;;;;;;4642285;30;20071;-83
2021/12/08 16:08:56;;;;;;;26.80;13.98;;;5.20;90.60;;;;;;4623976;31;20327;-83
2021/12/08 16:11:30;;;;;;;20.98;13.27;;;5.20;90.80;;;;;;4612923;30;20057;-83
2021/12/08 16:14:16;;;;;;;23.38;13.32;;;5.20;90.70;;;;;;4619563;30;20035;-82
2021/12/08 16:16:44;;;;;;;25.48;13.05;;;5.20;90.60;;;;;;4638357;30;20055;-82
2021/12/08 16:19:12;;;;;;;22.58;12.95;;;5.10;90.70;;;;;;4619943;30;20114;-82
2021/12/08 16:21:38;;;;;;;21.13;13.15;;;5.10;90.80;;;;;;4622386;30;20064;-82
2021/12/08 16:24:05;;;;;;;26.88;13.25;;;5.20;90.80;;;;;;4623553;30;20448;-82
2021/12/08 16:26:30;;;;;;;25.00;13.38;;;5.10;90.90;;;;;;4628854;30;20044;-82
2021/12/08 16:28:57;;;;;;;26.75;14.48;;;5.20;91.00;;;;;;4607137;30;20074;-82
2021/12/08 16:31:23;;;;;;;22.77;13.48;;;5.10;90.90;;;;;;4619378;30;20036;-82
2021/12/08 16:33:51;;;;;;;22.67;12.63;;;5.10;90.90;;;;;;4629625;30;20051;-82
2021/12/08 16:36:17;;;;;;;;;;;5.10;90.90;;;;;;4637485;30;20046;-82
2021/12/08 16:38:43;;;;;;;22.27;13.27;;;5.10;91.20;;;;;;4705971;30;19912;-83
2021/12/08 16:43:53;;;;;;;24.00;13.27;;;5.10;91.40;;;;;;4689577;30;20045;-83
2021/12/08 16:46:20;;;;;;;22.67;12.13;;;5.10;91.10;;;;;;4689327;30;20124;-82
2021/12/08 16:48:46;;;;;;;;;;;5.10;91.10;;;;;;4665426;30;20326;-83
2021/12/08 16:51:12;;;;;;;22.83;12.63;;;5.00;90.90;;;;;;4693512;30;19942;-83
2021/12/08 16:53:38;;;;;;;23.08;12.43;;;5.00;91.40;;;;;;4669431;30;20044;-83
2021/12/08 16:56:05;;;;;;;22.70;12.75;;;5.10;91.10;;;;;;4689373;30;20318;-81
2021/12/08 16:58:31;;;;;;;24.38;12.32;;;5.00;91.00;;;;;;4676330;30;20405;-81
2021/12/08 17:00:58;;;;;;;23.42;12.10;;;5.00;91.00;;;;;;4688720;30;20034;-81
2021/12/08 17:03:28;;;;;;;24.90;12.25;;;5.00;91.00;;;;;;4687898;30;20042;-81
2021/12/08 17:05:56;;;;;;;23.02;12.68;;;5.00;90.90;;;;;;4690085;30;20038;-81
2021/12/08 17:08:23;;;;;;;20.20;12.32;;;5.00;90.90;;;;;;4683567;30;20038;-81
2021/12/08 17:10:52;;;;;;;26.65;13.93;;;5.00;90.90;;;;;;4690306;30;20344;-81
2021/12/08 17:13:19;;;;;;;27.30;15.32;;;5.00;90.80;;;;;;4675364;30;20373;-81
2021/12/08 17:15:46;;;;;;;29.98;14.60;;;5.00;90.70;;;;;;4661055;30;20078;-81
2021/12/08 17:18:12;;;;;;;23.83;14.48;;;4.90;90.70;;;;;;4656300;30;20112;-81
2021/12/08 17:20:40;;;;;;;20.48;11.52;;;4.90;90.90;;;;;;4656820;30;20117;-81